Newton, Massachusetts
Current Conditions -  °F | °C
As of 8:03 AM on Friday 24 Oct 2014 (Local Time) from KBED Reporting Station
Overcast Overcast  
Wind Chill:   Ceiling: 1700
Heat Index:   Visibility: 10mi
Dew Point:   Wind: 9mph
Humidity: 93%   Direction: 310°NW
Pressure: 29.7"   Gusts: NA
Location:  42.34°N, 71.21°W
Report Text: KBED 241203Z 31008KT 10SM SCT011 BKN017 OVC023 09/08 A2970 RMK AO2 T00940083
Loading
Personal Weather Stations






























Interactive Weather Map
Tropical Storm Tracking
New forecast layout! Learn more

10-Day Weather Forecast

Advertisements
Track Severe Weather on mobile